Time;durP1;ratioP1;P1;durP2;ratioP2;P2;SDS_P1;SDS_P2;PMS_P1;PMS_P2;Temp;Humidity;BMP_temperature;BMP_pressure;BME280_temperature;BME280_humidity;BME280_pressure;Samples;Min_cycle;Max_cycle;Signal;HPM_P1;HPM_P2
2023/05/02 00:02:11;;;;;;;16.80;6.40;;;;;;;12.15;64.45;100045.39;106714;1266;25413;-59
2023/05/02 00:04:42;;;;;;;16.20;6.00;;;;;;;12.10;64.66;100046.16;106762;1276;22577;-59
2023/05/02 00:07:14;;;;;;;19.00;5.90;;;;;;;12.06;64.89;100043.23;106804;1264;25694;-60
2023/05/02 00:09:45;;;;;;;20.50;6.20;;;;;;;12.02;65.03;100040.14;110369;1268;22571;-62
2023/05/02 00:12:16;;;;;;;15.40;5.40;;;;;;;12.00;64.99;100042.91;110378;1268;22404;-60
2023/05/02 00:14:47;;;;;;;17.00;4.90;;;;;;;11.99;65.23;100041.73;107504;1261;23949;-64
2023/05/02 00:17:20;;;;;;;16.00;4.80;;;;;;;11.97;65.21;100040.86;106795;1272;24212;-62
2023/05/02 00:19:51;;;;;;;15.10;6.20;;;;;;;11.97;65.41;100037.45;110319;1268;22986;-59
2023/05/02 00:22:21;;;;;;;13.00;4.80;;;;;;;11.96;65.71;100036.86;110375;1268;22286;-62
2023/05/02 00:24:57;;;;;;;14.60;5.10;;;;;;;11.94;65.87;100037.92;110363;1269;22183;-60
2023/05/02 00:27:29;;;;;;;14.50;5.00;;;;;;;11.93;65.85;100036.89;110352;1270;22074;-62
2023/05/02 00:30:00;;;;;;;15.80;5.30;;;;;;;11.93;65.65;100034.96;110365;1261;22180;-61
2023/05/02 00:32:31;;;;;;;14.40;6.10;;;;;;;11.94;65.76;100038.57;110365;1264;22335;-59
2023/05/02 00:35:02;;;;;;;17.10;6.20;;;;;;;11.94;65.82;100036.23;110362;1268;22223;-60
2023/05/02 00:37:32;;;;;;;19.40;6.30;;;;;;;11.95;65.80;100034.21;110392;1268;22341;-61
2023/05/02 00:40:04;;;;;;;25.40;6.60;;;;;;;11.95;65.82;100030.25;110353;1260;22930;-61
2023/05/02 00:42:36;;;;;;;16.80;4.80;;;;;;;11.95;65.93;100029.95;110365;1268;22210;-60
2023/05/02 00:45:08;;;;;;;14.40;5.30;;;;;;;11.95;65.90;100027.24;110397;1262;22159;-62
2023/05/02 00:47:38;;;;;;;15.10;5.20;;;;;;;11.95;65.79;100026.95;110382;1268;22371;-60
2023/05/02 00:50:11;;;;;;;13.70;6.00;;;;;;;11.95;65.92;100028.05;110381;1260;22152;-60
2023/05/02 00:52:42;;;;;;;12.30;4.60;;;;;;;11.94;66.01;100030.33;110352;1269;23095;-60
2023/05/02 00:55:13;;;;;;;14.80;5.60;;;;;;;11.94;66.07;100031.61;108422;1276;22520;-60
2023/05/02 00:57:44;;;;;;;15.00;6.20;;;;;;;11.94;66.14;100023.38;106777;1269;25429;-57
2023/05/02 01:00:16;;;;;;;14.10;5.20;;;;;;;11.94;66.11;100018.38;106781;1276;24299;-59
2023/05/02 01:02:53;;;;;;;17.20;5.20;;;;;;;11.92;66.30;100017.04;110378;1265;22325;-60
2023/05/02 01:05:28;;;;;;;19.20;5.40;;;;;;;11.89;66.37;100014.88;110399;1261;22248;-59
2023/05/02 01:08:13;;;;;;;14.50;5.50;;;;;;;11.87;66.51;100018.00;110362;1273;23013;-61
2023/05/02 01:10:53;;;;;;;16.90;5.30;;;;;;;11.85;66.35;100018.75;110382;1268;22399;-60
2023/05/02 01:13:29;;;;;;;13.80;5.90;;;;;;;11.82;66.51;100022.84;110372;1260;22142;-59
2023/05/02 01:16:02;;;;;;;13.60;5.10;;;;;;;11.80;66.70;100024.45;110402;1269;23028;-59
2023/05/02 01:18:39;;;;;;;14.40;5.00;;;;;;;11.78;66.67;100021.17;110389;1260;22770;-59
2023/05/02 01:21:12;;;;;;;15.40;5.60;;;;;;;11.77;66.69;100019.52;108722;1276;23911;-58
2023/05/02 01:23:53;;;;;;;14.60;6.00;;;;;;;11.75;66.91;100022.80;110379;1265;22547;-60
2023/05/02 01:26:32;;;;;;;15.20;5.50;;;;;;;11.72;67.08;100022.07;110373;1260;22237;-59
2023/05/02 01:29:05;;;;;;;18.50;6.50;;;;;;;11.67;67.14;100018.55;110334;1268;22208;-59
2023/05/02 01:31:40;;;;;;;13.50;5.10;;;;;;;11.63;67.38;100023.83;110348;1269;22413;-60
2023/05/02 01:34:12;;;;;;;14.10;6.20;;;;;;;11.60;67.59;100022.52;110359;1268;22229;-61
2023/05/02 01:36:45;;;;;;;13.70;5.40;;;;;;;11.58;67.72;100022.39;110375;1261;22263;-61
2023/05/02 01:39:20;;;;;;;15.40;4.80;;;;;;;11.57;67.55;100026.10;110375;1276;22864;-60
2023/05/02 01:41:53;;;;;;;12.60;4.80;;;;;;;11.57;67.71;100022.42;110348;1268;22382;-63
2023/05/02 01:44:27;;;;;;;12.20;4.80;;;;;;;11.57;67.68;100024.86;110356;1268;22916;-59
2023/05/02 01:47:00;;;;;;;16.10;4.80;;;;;;;11.57;67.78;100023.64;110347;1268;22202;-62
2023/05/02 01:49:33;;;;;;;14.30;5.20;;;;;;;11.55;68.09;100021.04;110350;1273;22310;-61
2023/05/02 01:52:09;;;;;;;13.60;4.40;;;;;;;11.53;68.26;100022.03;110371;1268;22176;-64
2023/05/02 01:54:42;;;;;;;15.20;4.90;;;;;;;11.53;68.34;100024.05;110376;1269;22170;-62
2023/05/02 01:57:15;;;;;;;15.00;5.50;;;;;;;11.51;68.61;100031.66;110354;1268;23325;-60
2023/05/02 01:59:47;;;;;;;12.80;5.70;;;;;;;11.50;68.47;100028.05;110395;1262;22210;-62
2023/05/02 02:02:19;;;;;;;15.10;5.60;;;;;;;11.51;68.76;100031.86;110392;1269;22149;-62
2023/05/02 02:04:53;;;;;;;14.30;5.20;;;;;;;11.50;68.73;100030.80;110380;1265;22261;-62
2023/05/02 02:07:24;;;;;;;13.70;5.10;;;;;;;11.50;68.80;100029.36;110355;1265;22319;-59
2023/05/02 02:09:55;;;;;;;12.80;5.30;;;;;;;11.51;68.62;100032.88;110333;1260;22919;-59
2023/05/02 02:12:29;;;;;;;12.70;4.70;;;;;;;11.53;68.50;100032.54;110401;1262;22272;-61
2023/05/02 02:15:03;;;;;;;14.40;5.00;;;;;;;11.54;68.63;100034.80;110376;1269;22267;-59
2023/05/02 02:17:40;;;;;;;13.20;4.50;;;;;;;11.55;68.59;100038.98;110386;1262;23080;-61
2023/05/02 02:20:13;;;;;;;15.60;5.20;;;;;;;11.55;68.58;100038.63;110362;1262;22176;-61
2023/05/02 02:22:45;;;;;;;15.90;5.20;;;;;;;11.56;68.42;100044.33;110366;1268;22172;-60
2023/05/02 02:25:18;;;;;;;18.70;7.10;;;;;;;11.56;68.52;100044.07;110369;1260;22938;-60
2023/05/02 02:27:49;;;;;;;16.50;5.60;;;;;;;11.56;68.71;100044.88;110378;1268;22446;-62
2023/05/02 02:30:20;;;;;;;16.40;5.70;;;;;;;11.56;68.63;100049.30;110431;1260;22199;-60
2023/05/02 02:32:51;;;;;;;14.00;5.30;;;;;;;11.54;68.64;100051.79;110374;1272;22256;-58
2023/05/02 02:35:22;;;;;;;14.00;5.00;;;;;;;11.53;68.72;100052.58;110385;1260;22213;-60
2023/05/02 02:38:01;;;;;;;14.30;5.30;;;;;;;11.52;68.94;100057.04;107909;1273;22550;-60
2023/05/02 02:40:38;;;;;;;14.90;5.30;;;;;;;11.50;68.99;100059.46;110382;1265;22381;-59
2023/05/02 02:43:16;;;;;;;14.00;4.50;;;;;;;11.48;69.17;100065.98;110341;1265;22264;-62
2023/05/02 02:45:55;;;;;;;14.60;4.50;;;;;;;11.46;69.08;100067.69;110362;1260;22340;-60
2023/05/02 02:48:32;;;;;;;15.20;5.00;;;;;;;11.43;69.32;100072.64;110387;1268;22202;-60
2023/05/02 02:51:14;;;;;;;12.50;4.60;;;;;;;11.41;69.30;100077.34;110386;1269;22230;-60
2023/05/02 02:53:56;;;;;;;13.80;4.50;;;;;;;11.38;69.39;100074.50;110354;1265;23331;-60
2023/05/02 02:56:36;;;;;;;18.80;5.30;;;;;;;11.36;69.76;100082.40;110361;1262;22125;-61
2023/05/02 02:59:13;;;;;;;13.10;5.10;;;;;;;11.32;69.86;100087.27;110299;1269;22966;-61
2023/05/02 03:01:48;;;;;;;15.30;5.00;;;;;;;11.29;70.04;100092.38;110347;1273;23164;-61
2023/05/02 03:04:21;;;;;;;13.10;5.10;;;;;;;11.24;70.24;100090.52;110380;1268;22254;-60
2023/05/02 03:06:52;;;;;;;14.30;4.60;;;;;;;11.20;70.36;100092.66;110379;1269;22419;-62
2023/05/02 03:09:24;;;;;;;11.70;4.90;;;;;;;11.20;70.54;100100.36;110401;1276;22144;-61
2023/05/02 03:11:55;;;;;;;13.90;4.50;;;;;;;11.16;70.99;100098.08;110362;1261;22147;-61
2023/05/02 03:14:26;;;;;;;11.60;4.10;;;;;;;11.14;70.95;100101.66;110376;1265;22158;-60
2023/05/02 03:16:58;;;;;;;15.30;3.80;;;;;;;11.11;71.29;100101.56;110405;1268;22202;-60
2023/05/02 03:19:28;;;;;;;11.80;4.10;;;;;;;11.10;71.54;100100.63;110374;1272;22270;-63
2023/05/02 03:21:59;;;;;;;11.60;3.80;;;;;;;11.10;71.43;100102.88;110370;1260;22318;-62
2023/05/02 03:24:30;;;;;;;13.80;4.10;;;;;;;11.12;71.56;100104.38;106924;1276;22640;-59
2023/05/02 03:27:01;;;;;;;9.60;3.80;;;;;;;11.13;71.55;100107.23;106661;1268;25497;-61
2023/05/02 03:29:32;;;;;;;15.60;4.30;;;;;;;11.12;71.80;100104.94;110398;1268;22489;-62
2023/05/02 03:32:03;;;;;;;12.10;3.50;;;;;;;11.12;71.76;100107.92;110357;1265;22252;-61
2023/05/02 03:34:34;;;;;;;12.20;4.00;;;;;;;11.12;71.90;100110.67;110400;1268;23482;-60
2023/05/02 03:37:04;;;;;;;11.10;4.00;;;;;;;11.12;72.00;100114.64;110350;1253;22199;-62
2023/05/02 03:39:35;;;;;;;15.40;4.10;;;;;;;11.12;72.11;100119.81;110362;1272;22328;-60
2023/05/02 03:42:06;;;;;;;14.20;4.30;;;;;;;11.13;71.82;100123.59;110388;1268;22168;-60
2023/05/02 03:44:37;;;;;;;10.70;3.50;;;;;;;11.15;71.92;100130.63;110400;1265;22396;-59
2023/05/02 03:47:08;;;;;;;12.20;3.70;;;;;;;11.18;71.93;100137.33;110356;1268;23052;-60
2023/05/02 03:49:40;;;;;;;10.80;3.10;;;;;;;11.21;72.06;100140.93;110370;1268;22180;-60
2023/05/02 03:52:11;;;;;;;16.80;6.50;;;;;;;11.24;71.98;100139.56;110351;1268;22241;-59
2023/05/02 03:54:42;;;;;;;13.00;5.40;;;;;;;11.27;72.03;100141.58;110346;1262;22369;-59
2023/05/02 03:57:13;;;;;;;14.10;4.90;;;;;;;11.31;72.02;100142.40;110373;1261;22851;-60
2023/05/02 03:59:44;;;;;;;13.60;3.20;;;;;;;11.34;72.01;100141.17;110341;1262;22867;-60
2023/05/02 04:02:15;;;;;;;12.20;2.60;;;;;;;11.39;71.77;100142.05;110321;1262;22264;-60
2023/05/02 04:04:46;;;;;;;7.60;2.30;;;;;;;11.44;71.91;100150.41;110351;1268;22167;-58
2023/05/02 04:07:18;;;;;;;10.70;2.40;;;;;;;11.48;72.09;100159.65;110373;1269;22225;-58
2023/05/02 04:09:49;;;;;;;9.10;2.40;;;;;;;11.52;71.97;100156.62;110405;1260;23241;-60
2023/05/02 04:12:20;;;;;;;8.40;2.00;;;;;;;11.57;71.94;100157.45;110395;1260;23057;-60
2023/05/02 04:14:51;;;;;;;7.70;2.00;;;;;;;11.61;72.00;100162.39;110387;1265;23391;-60
2023/05/02 04:17:22;;;;;;;8.60;2.10;;;;;;;11.66;71.80;100168.11;110374;1268;22522;-59
2023/05/02 04:19:53;;;;;;;8.20;2.70;;;;;;;11.71;71.89;100180.95;110314;1268;22912;-60
2023/05/02 04:22:24;;;;;;;11.40;3.10;;;;;;;11.76;71.89;100179.19;110344;1262;22280;-60
2023/05/02 04:24:55;;;;;;;10.60;2.00;;;;;;;11.82;71.85;100186.84;110389;1261;23396;-59
2023/05/02 04:27:27;;;;;;;8.90;1.90;;;;;;;11.88;71.84;100190.27;110388;1268;22218;-60
2023/05/02 04:29:58;;;;;;;15.30;2.30;;;;;;;11.93;71.64;100191.80;110397;1262;22164;-59
2023/05/02 04:32:29;;;;;;;7.10;1.70;;;;;;;11.98;71.71;100202.42;110366;1268;22249;-63
2023/05/02 04:35:00;;;;;;;11.90;3.70;;;;;;;12.03;71.77;100202.58;110332;1272;22142;-63
2023/05/02 04:37:31;;;;;;;13.00;1.90;;;;;;;12.07;71.79;100211.64;106320;1273;24269;-59
2023/05/02 04:40:02;;;;;;;7.30;2.20;;;;;;;12.09;72.08;100210.69;106346;1265;24401;-59
2023/05/02 04:42:33;;;;;;;11.50;2.60;;;;;;;12.11;72.29;100207.65;106400;1276;24248;-60
2023/05/02 04:45:05;;;;;;;10.90;2.20;;;;;;;12.11;72.57;100217.64;106365;1262;22568;-59
2023/05/02 04:47:37;;;;;;;8.80;1.90;;;;;;;12.09;73.01;100220.46;106364;1276;22521;-60
2023/05/02 04:50:10;;;;;;;7.80;1.70;;;;;;;12.07;73.27;100223.80;110355;1262;22250;-60
2023/05/02 04:52:41;;;;;;;7.40;2.10;;;;;;;12.05;73.60;100229.77;110378;1260;22376;-59
2023/05/02 04:55:12;;;;;;;9.20;1.70;;;;;;;12.02;73.82;100237.46;110298;1273;22606;-61
2023/05/02 04:57:43;;;;;;;10.70;2.50;;;;;;;12.00;74.19;100238.55;110356;1265;22547;-60
2023/05/02 05:00:15;;;;;;;6.50;1.90;;;;;;;11.98;74.52;100239.90;107458;1267;22513;-59
2023/05/02 05:02:46;;;;;;;9.90;2.70;;;;;;;11.97;75.04;100240.30;110357;1262;22274;-60
2023/05/02 05:05:17;;;;;;;10.30;2.60;;;;;;;11.95;75.53;100244.58;110361;1268;22248;-58
2023/05/02 05:07:48;;;;;;;8.00;2.40;;;;;;;11.93;75.97;100242.06;110363;1268;22222;-56
2023/05/02 05:10:19;;;;;;;11.00;2.90;;;;;;;11.90;76.27;100239.59;110376;1267;22191;-59
2023/05/02 05:12:50;;;;;;;12.90;3.50;;;;;;;11.86;76.40;100240.80;110402;1260;23142;-58
2023/05/02 05:15:22;;;;;;;12.10;3.40;;;;;;;11.84;76.89;100247.79;110407;1276;22189;-58
2023/05/02 05:17:53;;;;;;;11.50;3.80;;;;;;;11.81;77.27;100249.95;110354;1257;22235;-58
2023/05/02 05:20:24;;;;;;;14.50;3.50;;;;;;;11.79;77.37;100254.45;110307;1265;22236;-56
2023/05/02 05:22:55;;;;;;;10.90;3.30;;;;;;;11.79;77.88;100255.73;110344;1264;23545;-58
2023/05/02 05:25:27;;;;;;;11.80;3.10;;;;;;;11.80;78.04;100259.75;110381;1268;22987;-58
2023/05/02 05:27:59;;;;;;;11.00;3.10;;;;;;;11.83;78.60;100258.33;110358;1260;22304;-56
2023/05/02 05:30:30;;;;;;;10.00;2.80;;;;;;;11.84;78.78;100266.96;110402;1276;22248;-59
2023/05/02 05:33:01;;;;;;;10.90;3.40;;;;;;;11.84;79.27;100271.23;110388;1262;22425;-57
2023/05/02 05:35:33;;;;;;;13.90;3.30;;;;;;;11.83;79.27;100273.17;110342;1265;22177;-58
2023/05/02 05:38:04;;;;;;;14.70;3.90;;;;;;;11.84;79.58;100276.53;110360;1268;22191;-56
2023/05/02 05:40:34;;;;;;;11.70;3.00;;;;;;;11.85;80.04;100278.27;110341;1262;23061;-57
2023/05/02 05:43:05;;;;;;;11.50;3.30;;;;;;;11.83;80.10;100275.98;110330;1268;22301;-59
2023/05/02 05:45:37;;;;;;;12.10;3.90;;;;;;;11.83;80.32;100279.07;110404;1276;22198;-57
2023/05/02 05:48:08;;;;;;;14.00;4.10;;;;;;;11.84;80.42;100281.91;110368;1276;22397;-59
2023/05/02 05:50:39;;;;;;;10.20;3.40;;;;;;;11.86;80.68;100286.37;110383;1265;22223;-58
2023/05/02 05:53:10;;;;;;;10.90;3.00;;;;;;;11.88;80.65;100288.18;110386;1262;23028;-57
2023/05/02 05:55:41;;;;;;;11.00;4.00;;;;;;;11.91;81.16;100293.97;110379;1268;22218;-55
2023/05/02 05:58:12;;;;;;;13.20;4.60;;;;;;;11.95;81.24;100297.70;110412;1265;22179;-56
2023/05/02 06:00:43;;;;;;;9.90;3.10;;;;;;;11.99;81.89;100296.13;110377;1268;23185;-57
2023/05/02 06:03:14;;;;;;;12.60;3.90;;;;;;;12.02;82.15;100296.06;110379;1262;22368;-58
2023/05/02 06:05:46;;;;;;;10.60;3.70;;;;;;;12.03;82.30;100300.52;110407;1261;22230;-57
2023/05/02 06:08:16;;;;;;;12.40;4.20;;;;;;;12.06;82.50;100302.48;110386;1272;22978;-58
2023/05/02 06:10:47;;;;;;;12.40;4.00;;;;;;;12.08;82.71;100300.64;110390;1265;22245;-57
2023/05/02 06:13:18;;;;;;;13.00;4.50;;;;;;;12.11;83.24;100305.15;110375;1273;22205;-59
2023/05/02 06:15:49;;;;;;;12.60;4.20;;;;;;;12.15;83.56;100316.59;110389;1269;22340;-57
2023/05/02 06:18:20;;;;;;;13.90;4.20;;;;;;;12.17;83.71;100319.13;110416;1264;22156;-58
2023/05/02 06:20:51;;;;;;;14.60;5.00;;;;;;;12.21;83.67;100319.42;110344;1265;22298;-58
2023/05/02 06:23:22;;;;;;;13.80;4.70;;;;;;;12.25;83.85;100322.27;110399;1265;22256;-57
2023/05/02 06:25:53;;;;;;;11.80;4.40;;;;;;;12.30;83.94;100324.17;110402;1262;22258;-58
2023/05/02 06:28:23;;;;;;;15.30;5.90;;;;;;;12.35;84.07;100323.23;110396;1264;22214;-59
2023/05/02 06:31:00;;;;;;;15.20;5.60;;;;;;;12.42;84.30;100325.05;110404;1268;22212;-59
2023/05/02 06:33:32;;;;;;;14.50;4.40;;;;;;;12.47;84.30;100327.30;110428;1268;22316;-60
2023/05/02 06:36:03;;;;;;;13.80;4.90;;;;;;;12.51;84.13;100330.47;110296;1269;22934;-58
2023/05/02 06:38:34;;;;;;;13.30;4.80;;;;;;;12.56;84.19;100337.70;110398;1265;22248;-59
2023/05/02 06:41:05;;;;;;;12.20;3.70;;;;;;;12.60;84.20;100340.80;110402;1265;22849;-57
2023/05/02 06:43:35;;;;;;;11.60;4.30;;;;;;;12.61;84.32;100343.02;110413;1268;22445;-59
2023/05/02 06:46:06;;;;;;;12.00;3.90;;;;;;;12.64;84.48;100344.93;110386;1262;22411;-59
2023/05/02 06:48:38;;;;;;;13.00;4.30;;;;;;;12.67;84.57;100344.55;110428;1260;22151;-59
2023/05/02 06:51:09;;;;;;;11.00;3.40;;;;;;;12.69;84.69;100349.20;110371;1275;23047;-59
2023/05/02 06:53:40;;;;;;;10.50;3.50;;;;;;;12.71;84.64;100357.30;110437;1271;22220;-59
2023/05/02 06:56:12;;;;;;;10.60;3.50;;;;;;;12.74;84.70;100356.88;110368;1262;23384;-56
2023/05/02 06:58:45;;;;;;;11.90;3.70;;;;;;;12.76;84.60;100359.94;110398;1268;22208;-57
2023/05/02 07:01:16;;;;;;;10.70;3.80;;;;;;;12.80;84.93;100363.40;110374;1260;22219;-57
2023/05/02 07:03:47;;;;;;;16.40;4.30;;;;;;;12.85;84.84;100366.38;110397;1269;23139;-58
2023/05/02 07:06:18;;;;;;;10.20;3.50;;;;;;;12.91;84.83;100375.00;110414;1273;22190;-58
2023/05/02 07:08:49;;;;;;;11.50;3.90;;;;;;;12.96;84.57;100374.35;107576;1268;26590;-56
2023/05/02 07:11:22;;;;;;;15.60;3.80;;;;;;;13.04;84.87;100374.25;106407;1276;22942;-57
2023/05/02 07:13:53;;;;;;;13.60;4.10;;;;;;;13.08;84.82;100375.27;106388;1273;22538;-57
2023/05/02 07:16:24;;;;;;;11.70;4.40;;;;;;;13.14;84.78;100378.45;106461;1275;22549;-57
2023/05/02 07:18:55;;;;;;;12.00;4.00;;;;;;;13.18;84.72;100381.86;106388;1276;25269;-57
2023/05/02 07:21:26;;;;;;;12.50;4.10;;;;;;;13.22;84.79;100382.11;106400;1268;22630;-58
2023/05/02 07:23:57;;;;;;;12.30;4.20;;;;;;;13.27;84.92;100388.02;110395;1269;22203;-57
2023/05/02 07:26:29;;;;;;;11.60;3.90;;;;;;;13.32;85.05;100390.62;110431;1268;22184;-59
2023/05/02 07:29:00;;;;;;;12.50;4.50;;;;;;;13.37;84.87;100387.72;110377;1265;22203;-58
2023/05/02 07:31:31;;;;;;;12.90;4.30;;;;;;;13.43;85.12;100390.31;110399;1262;23188;-58
2023/05/02 07:34:02;;;;;;;14.20;5.10;;;;;;;13.50;85.30;100394.16;110366;1269;22360;-58
2023/05/02 07:36:32;;;;;;;11.80;3.90;;;;;;;13.58;85.52;100391.68;110398;1269;22312;-59
2023/05/02 07:39:03;;;;;;;10.80;3.90;;;;;;;13.66;85.61;100392.68;110409;1269;22181;-58
2023/05/02 07:41:34;;;;;;;10.50;4.30;;;;;;;13.75;85.47;100399.58;110391;1269;23244;-57
2023/05/02 07:44:05;;;;;;;12.00;3.50;;;;;;;13.83;85.23;100403.48;110410;1271;22357;-59
2023/05/02 07:46:36;;;;;;;12.60;4.00;;;;;;;13.89;85.25;100407.05;110412;1268;22229;-59
2023/05/02 07:49:07;;;;;;;13.60;3.70;;;;;;;13.99;85.48;100409.16;110428;1269;22244;-58
2023/05/02 07:51:39;;;;;;;13.60;3.90;;;;;;;14.07;85.57;100410.20;110399;1273;22398;-59
2023/05/02 07:54:18;;;;;;;13.00;3.80;;;;;;;14.17;85.43;100412.16;110402;1273;22287;-58
2023/05/02 07:56:49;;;;;;;10.60;4.20;;;;;;;14.28;85.21;100416.44;107586;1269;22673;-56
2023/05/02 07:59:20;;;;;;;12.10;4.10;;;;;;;14.37;85.35;100421.42;106434;1276;25338;-57
2023/05/02 08:01:51;;;;;;;11.10;3.40;;;;;;;14.45;84.92;100418.56;106487;1269;22530;-57
2023/05/02 08:04:22;;;;;;;12.00;4.20;;;;;;;14.54;84.70;100418.00;106500;1276;25452;-57
2023/05/02 08:06:53;;;;;;;14.20;4.30;;;;;;;14.63;84.70;100420.34;106408;1269;22544;-57
2023/05/02 08:09:24;;;;;;;11.30;4.20;;;;;;;14.70;83.99;100423.35;106474;1276;22688;-56
2023/05/02 08:11:55;;;;;;;15.00;4.10;;;;;;;14.76;84.35;100424.15;106467;1269;24234;-58
2023/05/02 08:14:26;;;;;;;15.80;4.20;;;;;;;14.85;84.26;100431.86;106552;1276;25262;-55
2023/05/02 08:16:56;;;;;;;11.70;4.20;;;;;;;14.95;83.75;100432.11;106726;1253;24258;-58
2023/05/02 08:19:27;;;;;;;11.50;4.00;;;;;;;15.04;83.76;100431.63;106474;1269;24371;-60
2023/05/02 08:21:59;;;;;;;13.70;4.20;;;;;;;15.11;83.25;100436.61;106470;1276;22638;-58
2023/05/02 08:24:30;;;;;;;13.80;4.80;;;;;;;15.16;83.12;100431.02;106471;1269;26182;-58
2023/05/02 08:27:02;;;;;;;11.40;3.80;;;;;;;15.22;83.02;100431.09;106306;1253;22525;-58
2023/05/02 08:29:33;;;;;;;11.20;4.00;;;;;;;15.27;82.86;100431.81;106441;1276;22522;-57
2023/05/02 08:32:04;;;;;;;12.20;4.10;;;;;;;15.34;82.82;100432.76;106391;1263;23365;-58
2023/05/02 08:34:36;;;;;;;13.00;3.90;;;;;;;15.40;82.52;100436.20;110420;1271;22893;-58
2023/05/02 08:37:11;;;;;;;12.80;4.40;;;;;;;15.44;81.90;100436.29;110367;1269;22193;-58
2023/05/02 08:39:41;;;;;;;11.30;3.70;;;;;;;15.49;81.69;100439.48;110424;1269;23031;-59
2023/05/02 08:42:12;;;;;;;12.90;4.10;;;;;;;15.55;81.85;100438.55;110373;1268;22146;-59
2023/05/02 08:44:43;;;;;;;12.80;4.60;;;;;;;15.60;81.46;100439.90;110416;1269;25032;-59
2023/05/02 08:47:15;;;;;;;11.60;3.80;;;;;;;15.66;81.72;100442.05;110432;1269;22258;-59
2023/05/02 08:49:47;;;;;;;15.00;3.80;;;;;;;15.73;81.19;100445.90;110436;1270;22214;-58
2023/05/02 08:52:22;;;;;;;11.20;4.20;;;;;;;15.78;81.29;100448.98;110404;1264;22203;-59
2023/05/02 08:54:54;;;;;;;12.30;3.90;;;;;;;15.86;80.94;100452.38;110417;1262;22166;-59
2023/05/02 08:57:25;;;;;;;12.10;4.00;;;;;;;15.87;80.34;100454.83;110438;1268;22206;-59
2023/05/02 08:59:56;;;;;;;13.40;4.90;;;;;;;15.90;80.31;100455.04;107889;1270;25288;-58
2023/05/02 09:02:42;;;;;;;13.30;4.60;;;;;;;15.95;80.36;100459.95;106480;1265;24953;-57
2023/05/02 09:05:16;;;;;;;11.90;4.20;;;;;;;15.99;80.24;100459.55;106461;1269;22566;-57
2023/05/02 09:07:49;;;;;;;10.00;3.60;;;;;;;16.02;79.94;100463.19;106521;1269;25345;-57
2023/05/02 09:10:21;;;;;;;14.40;5.20;;;;;;;16.05;79.82;100467.70;110397;1270;22168;-59
2023/05/02 09:12:52;;;;;;;13.20;4.30;;;;;;;16.09;79.61;100473.22;110355;1268;22220;-59
2023/05/02 09:15:24;;;;;;;14.10;4.60;;;;;;;16.11;79.66;100476.35;110403;1269;23179;-59
2023/05/02 09:17:57;;;;;;;11.50;5.00;;;;;;;16.16;79.74;100480.14;108044;1269;26125;-59
2023/05/02 09:20:28;;;;;;;13.70;4.20;;;;;;;16.21;79.17;100481.77;106465;1275;22564;-58
2023/05/02 09:22:59;;;;;;;11.00;4.50;;;;;;;16.27;79.42;100481.94;106341;1261;24221;-59
2023/05/02 09:25:50;;;;;;;11.20;4.00;;;;;;;16.29;79.07;100483.67;106403;1275;22517;-58
2023/05/02 09:28:39;;;;;;;14.10;4.90;;;;;;;16.31;78.73;100487.62;106305;1269;22554;-59
2023/05/02 09:31:11;;;;;;;14.40;5.00;;;;;;;16.34;78.64;100490.13;110329;1268;22364;-59
2023/05/02 09:33:42;;;;;;;12.60;5.10;;;;;;;16.38;78.67;100490.33;110351;1265;22189;-59
2023/05/02 09:36:15;;;;;;;14.10;4.90;;;;;;;16.42;78.25;100494.27;110408;1260;22161;-59
2023/05/02 09:38:48;;;;;;;10.90;4.20;;;;;;;16.46;78.38;100494.27;110386;1269;23419;-61
2023/05/02 09:41:20;;;;;;;12.80;4.40;;;;;;;16.52;78.07;100502.85;110404;1265;23080;-61
2023/05/02 09:43:58;;;;;;;12.60;5.30;;;;;;;16.60;77.84;100503.14;110348;1269;22345;-62
2023/05/02 09:46:41;;;;;;;13.20;4.80;;;;;;;16.67;77.91;100508.88;110323;1263;22169;-59
2023/05/02 09:49:13;;;;;;;13.30;5.50;;;;;;;16.78;77.60;100513.31;110264;1272;22220;-61
2023/05/02 09:51:45;;;;;;;15.20;6.00;;;;;;;16.85;77.32;100506.33;110396;1262;22246;-61
2023/05/02 09:54:39;;;;;;;12.00;5.00;;;;;;;16.94;76.91;100512.41;110413;1273;22164;-60
2023/05/02 09:57:10;;;;;;;13.00;4.80;;;;;;;17.03;76.35;100513.98;110370;1270;22225;-61
2023/05/02 09:59:42;;;;;;;12.50;5.00;;;;;;;17.12;76.68;100513.89;109912;1262;22560;-61
2023/05/02 10:02:13;;;;;;;16.40;5.50;;;;;;;17.23;76.38;100515.30;106442;1268;22656;-60
2023/05/02 10:04:46;;;;;;;13.50;5.60;;;;;;;17.30;75.04;100516.91;106487;1269;22549;-60
2023/05/02 10:07:18;;;;;;;17.30;5.80;;;;;;;17.32;74.28;100517.73;106461;1266;24495;-61
2023/05/02 10:09:51;;;;;;;12.10;4.80;;;;;;;17.37;75.04;100518.36;106507;1269;25526;-60
2023/05/02 10:12:26;;;;;;;13.30;5.00;;;;;;;17.44;74.53;100517.45;106508;1269;23160;-60
2023/05/02 10:15:00;;;;;;;12.60;4.90;;;;;;;17.53;73.85;100521.15;106581;1253;25565;-60
2023/05/02 10:17:37;;;;;;;14.40;5.90;;;;;;;17.61;74.01;100519.20;110370;1276;23134;-60
2023/05/02 10:20:11;;;;;;;13.60;5.00;;;;;;;17.70;73.76;100518.66;110375;1273;22897;-62
2023/05/02 10:22:43;;;;;;;12.90;4.70;;;;;;;17.80;73.61;100522.59;110412;1265;22205;-62
2023/05/02 10:25:14;;;;;;;14.70;4.90;;;;;;;17.90;72.15;100520.43;108984;1273;22923;-61
2023/05/02 10:27:46;;;;;;;16.20;5.30;;;;;;;17.95;71.71;100525.64;106543;1263;25432;-61
2023/05/02 10:30:17;;;;;;;12.00;4.00;;;;;;;17.98;69.95;100524.69;106513;1266;22633;-61
2023/05/02 10:32:51;;;;;;;14.50;4.80;;;;;;;17.99;69.97;100522.98;106499;1276;22994;-60
2023/05/02 10:35:23;;;;;;;12.40;4.80;;;;;;;18.06;69.72;100526.02;110422;1272;22348;-62
2023/05/02 10:37:55;;;;;;;11.90;4.30;;;;;;;18.12;69.54;100526.86;110377;1266;22342;-60
2023/05/02 10:40:26;;;;;;;12.70;4.20;;;;;;;18.19;68.82;100528.09;107447;1263;22609;-60
2023/05/02 10:42:57;;;;;;;15.30;5.40;;;;;;;18.21;68.27;100525.23;106494;1269;25375;-61
2023/05/02 10:45:36;;;;;;;12.90;4.60;;;;;;;18.20;67.55;100530.59;106443;1276;25372;-61
2023/05/02 10:48:21;;;;;;;13.50;5.20;;;;;;;18.21;67.41;100530.89;106596;1276;23802;-61
2023/05/02 10:50:53;;;;;;;13.90;4.70;;;;;;;18.23;67.03;100534.74;110407;1269;22970;-62
2023/05/02 10:53:26;;;;;;;16.10;5.30;;;;;;;18.25;67.71;100534.81;110434;1275;22207;-62
2023/05/02 10:56:20;;;;;;;14.70;4.60;;;;;;;18.31;66.88;100529.23;110378;1269;22852;-61
2023/05/02 10:58:52;;;;;;;11.10;4.80;;;;;;;18.33;65.83;100535.55;110371;1272;23522;-61
2023/05/02 11:01:38;;;;;;;10.70;4.10;;;;;;;18.33;65.88;100537.58;110434;1270;22149;-61
2023/05/02 11:04:10;;;;;;;14.10;4.90;;;;;;;18.33;65.20;100537.42;110381;1269;22430;-61
2023/05/02 11:07:12;;;;;;;11.60;4.20;;;;;;;18.35;64.73;100535.47;110402;1272;22967;-61
2023/05/02 11:09:43;;;;;;;13.60;4.40;;;;;;;18.39;64.58;100532.55;110407;1268;22190;-62
2023/05/02 11:12:46;;;;;;;12.30;3.90;;;;;;;18.43;63.84;100540.20;110398;1265;22181;-61
2023/05/02 11:15:56;;;;;;;11.40;3.00;;;;;;;18.47;62.53;100540.65;110393;1265;22351;-61
2023/05/02 11:18:26;;;;;;;;;;;;;;;18.48;61.50;100543.56;110386;1272;23223;-62
2023/05/02 11:21:30;;;;;;;10.20;2.70;;;;;;;18.47;59.97;100544.55;110070;1264;22641;-61
2023/05/02 11:24:32;;;;;;;11.90;3.90;;;;;;;18.45;59.02;100549.23;106505;1276;25301;-60
2023/05/02 11:27:42;;;;;;;11.90;3.20;;;;;;;18.45;58.57;100549.45;102104;1267;24770;-60
2023/05/02 11:30:15;;;;;;;14.20;3.50;;;;;;;18.43;57.82;100556.55;109905;1276;22333;-61
2023/05/02 11:33:20;;;;;;;12.70;3.70;;;;;;;18.42;57.78;100556.54;109910;1274;22388;-61
2023/05/02 11:35:51;;;;;;;11.90;3.40;;;;;;;18.43;57.63;100561.63;109900;1265;22287;-62
2023/05/02 11:38:22;;;;;;;9.30;3.00;;;;;;;18.47;57.68;100558.17;109905;1269;22932;-61